Time;durP1;ratioP1;P1;durP2;ratioP2;P2;SDS_P1;SDS_P2;PMS_P1;PMS_P2;Temp;Humidity;BMP_temperature;BMP_pressure;BME280_temperature;BME280_humidity;BME280_pressure;Samples;Min_cycle;Max_cycle;Signal;HPM_P1;HPM_P2
2022/09/14 00:00:26;;;;;;;3.78;1.35;;;;;;;20.44;57.55;95879.19;6123509;23;20010;-79
2022/09/14 00:02:54;;;;;;;5.63;1.80;;;;;;;20.44;57.32;95863.28;6124955;23;20002;-78
2022/09/14 00:05:23;;;;;;;2.08;1.40;;;;;;;20.44;57.53;95868.59;6124788;23;20003;-78
2022/09/14 00:07:50;;;;;;;3.60;1.70;;;;;;;20.44;57.51;95863.28;6124648;23;20037;-78
2022/09/14 00:10:18;;;;;;;1.77;1.67;;;;;;;20.45;57.54;95854.28;6124460;23;20025;-79
2022/09/14 00:12:46;;;;;;;3.08;1.70;;;;;;;20.47;57.55;95856.69;6125099;23;20011;-78
2022/09/14 00:15:14;;;;;;;4.32;1.50;;;;;;;20.45;57.67;95841.06;6124723;23;20034;-79
2022/09/14 00:17:43;;;;;;;3.75;1.50;;;;;;;20.47;57.57;95840.78;6124740;23;20038;-78
2022/09/14 00:20:12;;;;;;;2.55;1.50;;;;;;;20.47;57.36;95841.59;6124386;23;20010;-79
2022/09/14 00:22:39;;;;;;;1.70;1.40;;;;;;;20.49;57.51;95844.78;6124795;23;20030;-78
2022/09/14 00:25:08;;;;;;;4.95;1.63;;;;;;;20.50;57.39;95838.41;6124740;23;20165;-78
2022/09/14 00:27:36;;;;;;;3.15;1.73;;;;;;;20.50;57.25;95822.50;6124972;23;20014;-78
2022/09/14 00:30:05;;;;;;;1.65;1.38;;;;;;;20.50;57.37;95819.84;6124356;23;20006;-79
2022/09/14 00:32:33;;;;;;;2.30;1.60;;;;;;;20.49;57.35;95814.84;6124744;23;20042;-79
2022/09/14 00:35:02;;;;;;;2.25;1.50;;;;;;;20.49;57.28;95810.31;6124444;23;20006;-78
2022/09/14 00:37:30;;;;;;;2.10;1.55;;;;;;;20.48;57.48;95811.38;6124816;23;20010;-79
2022/09/14 00:39:58;;;;;;;3.03;1.63;;;;;;;20.46;57.43;95810.84;6124249;23;20026;-78
2022/09/14 00:42:26;;;;;;;3.63;1.52;;;;;;;20.44;57.44;95820.91;6124732;23;20041;-78
2022/09/14 00:45:10;;;;;;;1.48;1.30;;;;;;;20.43;57.33;95816.69;6124358;23;20018;-78
2022/09/14 00:47:38;;;;;;;1.65;1.30;;;;;;;20.45;57.36;95822.50;6124721;23;20037;-78
2022/09/14 00:50:09;;;;;;;3.83;1.92;;;;;;;20.46;57.05;95813.50;6124127;23;20010;-78
2022/09/14 00:52:40;;;;;;;2.67;1.48;;;;;;;20.47;57.13;95814.31;6124436;23;20017;-78
2022/09/14 00:55:12;;;;;;;2.63;1.65;;;;;;;20.48;57.10;95790.19;6124686;23;20046;-78
2022/09/14 00:57:43;;;;;;;2.20;1.80;;;;;;;20.48;57.09;95790.19;6124631;23;20010;-79
2022/09/14 01:00:13;;;;;;;2.20;1.70;;;;;;;20.50;56.98;95792.56;6124356;23;20013;-78
2022/09/14 01:02:42;;;;;;;4.57;2.10;;;;;;;20.50;56.94;95792.56;6124457;23;20053;-78
2022/09/14 01:05:12;;;;;;;1.95;1.73;;;;;;;20.52;57.01;95787.81;6124361;23;20010;-79
2022/09/14 01:08:00;;;;;;;1.70;1.60;;;;;;;20.53;57.14;95787.56;6124447;23;20022;-78
2022/09/14 01:10:39;;;;;;;1.70;1.60;;;;;;;20.53;57.25;95787.56;6124108;23;20037;-78
2022/09/14 01:13:18;;;;;;;1.90;1.70;;;;;;;20.56;57.62;95776.41;6124707;23;20292;-79
2022/09/14 01:15:55;;;;;;;2.13;1.88;;;;;;;20.57;57.35;95762.16;6124368;23;20022;-78
2022/09/14 01:18:28;;;;;;;3.97;1.70;;;;;;;20.59;57.56;95761.88;6124511;23;20029;-78
2022/09/14 01:21:02;;;;;;;12.27;2.35;;;;;;;20.60;57.57;95744.91;6123929;23;20034;-78
2022/09/14 01:23:36;;;;;;;3.28;1.88;;;;;;;20.60;57.78;95744.09;6124223;23;20006;-79
2022/09/14 01:26:38;;;;;;;3.83;1.70;;;;;;;20.60;57.70;95744.09;6124477;23;20058;-79
2022/09/14 01:29:13;;;;;;;1.92;1.67;;;;;;;20.60;58.00;95736.16;6122287;23;20054;-78
2022/09/14 01:31:49;;;;;;;2.72;1.70;;;;;;;20.61;58.24;95745.72;6123692;23;20006;-78
2022/09/14 01:34:23;;;;;;;1.98;1.60;;;;;;;20.61;57.61;95733.25;6124108;23;20022;-78
2022/09/14 01:36:57;;;;;;;4.53;2.25;;;;;;;20.61;57.99;95730.59;6124295;23;20042;-79
2022/09/14 01:39:30;;;;;;;3.65;1.95;;;;;;;20.62;57.88;95731.38;6124199;23;20015;-77
2022/09/14 01:42:00;;;;;;;2.83;2.15;;;;;;;20.62;57.82;95726.09;6123978;23;20092;-78
2022/09/14 01:44:32;;;;;;;2.40;2.20;;;;;;;20.61;57.91;95729.81;6124216;23;20003;-78
2022/09/14 01:47:05;;;;;;;2.88;2.33;;;;;;;20.58;57.95;95731.94;6124014;23;20006;-78
2022/09/14 01:49:37;;;;;;;3.78;2.60;;;;;;;20.57;57.96;95730.34;6124180;23;20058;-78
2022/09/14 01:52:08;;;;;;;2.97;2.10;;;;;;;20.54;58.10;95716.81;6123864;23;20034;-78
2022/09/14 01:54:42;;;;;;;2.95;2.00;;;;;;;20.51;58.42;95710.19;6124379;23;20033;-78
2022/09/14 01:57:16;;;;;;;5.35;2.25;;;;;;;20.49;58.70;95695.63;6124284;23;20014;-78
2022/09/14 01:59:47;;;;;;;2.33;2.10;;;;;;;20.45;58.66;95695.34;6124113;23;20009;-78
2022/09/14 02:02:19;;;;;;;2.33;2.13;;;;;;;20.43;58.92;95696.69;6123651;23;20026;-78
2022/09/14 02:04:53;;;;;;;4.65;2.35;;;;;;;20.40;59.04;95713.91;6124245;23;20006;-78
2022/09/14 02:07:21;;;;;;;2.30;2.10;;;;;;;20.40;59.01;95729.81;6124349;23;20017;-78
2022/09/14 02:09:50;;;;;;;2.28;2.00;;;;;;;20.43;59.49;95778.81;6124373;23;20021;-78
2022/09/14 02:12:18;;;;;;;3.20;1.90;;;;;;;20.45;60.11;95843.69;6123959;23;20078;-78
2022/09/14 02:14:47;;;;;;;3.65;1.95;;;;;;;20.50;60.19;95901.97;6124116;23;20022;-78
2022/09/14 02:17:15;;;;;;;4.68;1.95;;;;;;;20.52;60.01;95891.13;6124349;23;20014;-78
2022/09/14 02:19:48;;;;;;;3.78;2.38;;;;;;;20.55;61.86;95835.78;6123894;23;20051;-78
2022/09/14 02:22:16;;;;;;;6.53;3.08;;;;;;;20.53;63.07;95807.94;6123796;23;20034;-78
2022/09/14 02:24:43;;;;;;;4.18;2.40;;;;;;;20.51;63.82;95833.88;6123939;23;20018;-78
2022/09/14 02:27:11;;;;;;;3.55;2.33;;;;;;;20.51;64.43;95832.06;6123916;23;20014;-77
2022/09/14 02:29:39;;;;;;;6.90;2.55;;;;;;;20.48;64.61;95835.22;6123943;23;20054;-78
2022/09/14 02:32:19;;;;;;;2.60;2.22;;;;;;;20.47;65.57;95867.28;6123370;23;20062;-78
2022/09/14 02:34:54;;;;;;;7.45;3.28;;;;;;;20.49;66.85;95891.66;6124741;23;20018;-78
2022/09/14 02:37:30;;;;;;;3.13;2.85;;;;;;;20.50;66.60;95862.25;6125620;23;20036;-78
2022/09/14 02:40:06;;;;;;;6.13;3.67;;;;;;;20.44;67.35;95815.59;6125393;23;20033;-78
2022/09/14 02:42:40;;;;;;;5.80;3.20;;;;;;;20.35;67.77;95841.03;6125607;23;20050;-78
2022/09/14 02:45:18;;;;;;;5.35;3.35;;;;;;;20.28;68.63;95848.44;6125635;23;20006;-78
2022/09/14 02:47:54;;;;;;;5.53;3.40;;;;;;;20.22;69.44;95838.88;6125576;23;20018;-78
2022/09/14 02:50:29;;;;;;;5.82;3.65;;;;;;;20.18;69.30;95814.75;6124930;23;20014;-78
2022/09/14 02:53:01;;;;;;;5.20;3.05;;;;;;;20.15;69.67;95817.94;6124369;23;20079;-79
2022/09/14 02:55:34;;;;;;;4.75;3.45;;;;;;;20.10;69.78;95821.38;6124677;23;20058;-78
2022/09/14 02:58:05;;;;;;;4.55;3.33;;;;;;;20.05;70.33;95829.31;6125570;23;20007;-78
2022/09/14 03:00:39;;;;;;;4.82;3.50;;;;;;;20.02;70.57;95832.47;6124887;23;20070;-78
2022/09/14 03:03:10;;;;;;;4.15;3.17;;;;;;;20.00;70.98;95828.50;6124992;23;20018;-78
2022/09/14 03:05:39;;;;;;;6.25;3.42;;;;;;;19.98;70.72;95796.19;6125589;23;20018;-78
2022/09/14 03:08:09;;;;;;;4.78;4.07;;;;;;;19.95;71.00;95793.00;6125209;23;20070;-78
2022/09/14 03:10:37;;;;;;;4.15;3.08;;;;;;;19.92;71.00;95808.63;6124742;23;20014;-78
2022/09/14 03:13:05;;;;;;;8.77;4.32;;;;;;;19.93;71.99;95804.91;6125505;23;20010;-78
2022/09/14 03:15:32;;;;;;;6.32;3.85;;;;;;;19.95;72.18;95810.75;6125098;23;20010;-78
2022/09/14 03:18:00;;;;;;;9.90;3.65;;;;;;;19.95;72.78;95821.34;6125144;23;20026;-79
2022/09/14 03:20:32;;;;;;;6.25;4.03;;;;;;;19.97;74.01;95827.16;6124572;23;20010;-78
2022/09/14 03:23:01;;;;;;;14.43;4.63;;;;;;;19.99;73.88;95805.75;6125386;23;20026;-78
2022/09/14 03:25:29;;;;;;;6.07;3.95;;;;;;;19.95;72.93;95792.22;6125344;23;20006;-78
2022/09/14 03:27:58;;;;;;;6.68;4.20;;;;;;;19.86;73.45;95791.94;6124971;23;20022;-78
2022/09/14 03:30:26;;;;;;;4.65;3.90;;;;;;;19.79;73.63;95786.09;6124652;23;20014;-78
2022/09/14 03:32:54;;;;;;;11.90;4.95;;;;;;;19.70;74.49;95785.81;6124828;23;20010;-78
2022/09/14 03:35:21;;;;;;;6.90;4.13;;;;;;;19.66;74.48;95774.13;6124858;23;20049;-78
2022/09/14 03:37:51;;;;;;;10.20;4.78;;;;;;;19.61;75.04;95766.13;6125178;23;20014;-78
2022/09/14 03:40:18;;;;;;;8.68;4.90;;;;;;;19.63;76.04;95766.69;6124337;23;20030;-78
2022/09/14 03:42:50;;;;;;;8.63;4.70;;;;;;;19.62;76.04;95761.66;6124869;23;20065;-78
2022/09/14 03:45:19;;;;;;;6.95;4.55;;;;;;;19.58;74.97;95769.31;6124636;23;20038;-78
2022/09/14 03:47:48;;;;;;;4.45;3.90;;;;;;;19.52;75.18;95763.19;6124766;23;20010;-78
2022/09/14 03:50:17;;;;;;;8.32;5.20;;;;;;;19.51;75.34;95766.13;6124294;23;20034;-78
2022/09/14 03:52:45;;;;;;;6.32;4.85;;;;;;;19.46;75.30;95758.97;6124658;23;20031;-78
2022/09/14 03:55:14;;;;;;;5.00;4.47;;;;;;;19.42;75.31;95760.53;6124629;23;20010;-78
2022/09/14 03:57:42;;;;;;;6.22;5.10;;;;;;;19.35;75.38;95750.19;6124896;23;20086;-78
2022/09/14 04:00:11;;;;;;;6.57;4.63;;;;;;;19.30;75.84;95744.88;6124194;23;20007;-78
2022/09/14 04:02:39;;;;;;;10.25;5.18;;;;;;;19.27;75.79;95747.25;6124406;23;20002;-78
2022/09/14 04:05:08;;;;;;;10.88;5.20;;;;;;;19.25;76.12;95742.19;6124468;23;20010;-78
2022/09/14 04:07:36;;;;;;;6.75;5.35;;;;;;;19.24;76.39;95745.09;6124199;23;20010;-78
2022/09/14 04:10:05;;;;;;;7.28;5.13;;;;;;;19.20;76.71;95750.13;6123880;23;20034;-79
2022/09/14 04:12:35;;;;;;;7.88;5.70;;;;;;;19.21;78.18;95749.06;6124656;23;20014;-78
2022/09/14 04:15:03;;;;;;;8.35;5.63;;;;;;;19.22;77.90;95734.81;6124395;23;20014;-78
2022/09/14 04:17:31;;;;;;;5.70;4.85;;;;;;;19.21;76.95;95741.13;6124463;23;20033;-78
2022/09/14 04:19:59;;;;;;;7.40;5.40;;;;;;;19.22;78.50;95732.16;6123964;23;20006;-77
2022/09/14 04:22:27;;;;;;;6.32;4.55;;;;;;;19.23;78.20;95707.28;6124101;23;20041;-77
2022/09/14 04:24:54;;;;;;;8.55;5.35;;;;;;;19.22;77.58;95705.72;6124241;23;20002;-78
2022/09/14 04:27:22;;;;;;;6.78;4.72;;;;;;;19.20;77.84;95701.72;6124398;23;20070;-78
2022/09/14 04:29:51;;;;;;;6.88;5.20;;;;;;;19.17;77.36;95708.31;6124301;23;20058;-78
2022/09/14 04:32:19;;;;;;;5.95;5.43;;;;;;;19.09;77.28;95695.63;6123677;23;20018;-78
2022/09/14 05:17:52;;;;;;;6.35;3.50;;;;;;;18.86;80.33;95684.38;6210773;23;20039;-75
2022/09/14 05:20:20;;;;;;;6.35;3.60;;;;;;;18.90;80.68;95687.31;6213308;23;20028;-78
2022/09/14 05:22:50;;;;;;;5.82;3.75;;;;;;;18.98;81.96;95686.03;6214942;23;20453;-78
2022/09/14 05:25:17;;;;;;;5.85;4.13;;;;;;;19.02;80.90;95695.84;6214897;23;20371;-78
2022/09/14 05:27:45;;;;;;;4.63;3.70;;;;;;;19.08;81.41;95697.44;6215447;23;20528;-78
2022/09/14 05:30:13;;;;;;;5.97;3.70;;;;;;;19.12;80.42;95690.59;6214121;23;20028;-77
2022/09/14 05:32:40;;;;;;;6.75;3.75;;;;;;;19.15;80.12;95684.00;6214762;23;20024;-79
2022/09/14 05:35:10;;;;;;;4.03;3.50;;;;;;;19.21;80.96;95690.91;6214844;23;20025;-78
2022/09/14 05:37:37;;;;;;;5.60;3.55;;;;;;;19.24;81.19;95685.09;6215147;23;20024;-77
2022/09/14 05:40:06;;;;;;;4.65;4.05;;;;;;;19.28;81.49;95686.16;6214240;23;20095;-78
2022/09/14 05:42:34;;;;;;;6.75;4.07;;;;;;;19.31;80.33;95677.72;6231776;23;20016;-78
2022/09/14 05:47:43;;;;;;;7.93;4.23;;;;;;;19.33;79.50;95674.81;6175993;23;20453;-82
2022/09/14 05:50:13;;;;;;;6.60;3.92;;;;;;;19.33;79.41;95675.63;6169409;23;20240;-82
2022/09/14 05:52:41;;;;;;;4.70;3.70;;;;;;;19.34;79.85;95682.47;6174621;23;20018;-82
2022/09/14 05:55:09;;;;;;;6.22;3.63;;;;;;;19.34;80.00;95677.19;6172445;23;20025;-82
2022/09/14 05:57:36;;;;;;;6.28;3.80;;;;;;;19.35;79.31;95673.50;6165445;23;20028;-82
2022/09/14 06:00:28;;;;;;;6.13;3.97;;;;;;;19.39;80.90;95686.19;6180495;23;20009;-82
2022/09/14 06:03:20;;;;;;;6.32;3.90;;;;;;;19.42;79.93;95683.84;6179037;23;20036;-82
2022/09/14 06:05:49;;;;;;;7.95;3.40;;;;;;;19.42;80.07;95680.41;6173308;23;20401;-82
2022/09/14 10:26:26;;;;;;;2.28;1.33;;;;;;;39.50;30.43;95757.31;6164135;23;20028;-79
2022/09/14 10:28:54;;;;;;;4.53;4.07;;;;;;;40.29;29.25;95754.47;6157505;23;20022;-81
2022/09/14 10:31:30;;;;;;;1.23;0.90;;;;;;;40.71;27.12;95742.53;6161241;23;20553;-81
2022/09/14 10:33:59;;;;;;;2.85;1.33;;;;;;;41.18;28.02;95747.75;6162771;23;20026;-82
2022/09/14 10:36:29;;;;;;;2.88;1.30;;;;;;;41.70;26.33;95755.94;6161664;23;20024;-79
2022/09/14 10:39:03;;;;;;;4.00;1.17;;;;;;;41.97;26.00;95741.56;6164757;23;20105;-79
2022/09/14 10:41:38;;;;;;;2.15;1.02;;;;;;;41.95;26.24;95732.97;6162935;23;20022;-79
2022/09/14 10:44:32;;;;;;;2.90;1.10;;;;;;;41.85;26.30;95731.13;6163982;23;20442;-79
2022/09/14 10:47:15;;;;;;;3.90;1.30;;;;;;;41.98;25.14;95722.00;6134006;23;20046;-79
2022/09/14 10:49:56;;;;;;;3.10;0.90;;;;;;;41.33;25.48;95721.81;6132289;23;20024;-78
2022/09/14 10:52:31;;;;;;;;;;;;;;;41.13;26.62;95707.09;6130529;23;20026;-82
2022/09/14 10:55:14;;;;;;;2.10;1.45;;;;;;;40.76;26.39;95703.06;6132063;23;20261;-85
2022/09/14 10:57:53;;;;;;;3.25;1.45;;;;;;;40.22;26.30;95713.50;6131007;23;20045;-86
2022/09/14 11:00:21;;;;;;;2.08;1.42;;;;;;;39.56;27.81;95701.19;6131106;23;20102;-85
2022/09/14 11:03:10;;;;;;;8.00;1.40;;;;;;;38.62;28.30;95702.28;6140216;23;20028;-86
2022/09/14 11:05:43;;;;;;;2.25;1.40;;;;;;;37.75;29.54;95700.34;6135829;23;20014;-86
2022/09/14 11:08:18;;;;;;;3.65;1.95;;;;;;;36.88;31.34;95688.78;6133245;23;20029;-86
2022/09/14 11:10:55;;;;;;;4.90;1.77;;;;;;;36.01;32.42;95685.50;6131226;23;20077;-87
2022/09/14 11:13:46;;;;;;;5.10;2.22;;;;;;;35.07;34.66;95686.06;6129490;23;20120;-84
2022/09/14 11:16:29;;;;;;;2.58;1.40;;;;;;;34.29;35.72;95675.41;6132292;23;20398;-85
2022/09/14 11:19:06;;;;;;;4.20;2.35;;;;;;;33.69;38.18;95680.34;6132233;23;20090;-85
2022/09/14 11:21:46;;;;;;;3.40;1.70;;;;;;;33.25;37.09;95679.34;6127968;23;20020;-85
2022/09/14 11:24:21;;;;;;;3.15;1.35;;;;;;;32.91;37.76;95682.72;6127337;23;20097;-86
2022/09/14 11:26:59;;;;;;;4.38;1.42;;;;;;;32.59;40.05;95680.03;6126981;23;20024;-84
2022/09/14 11:29:32;;;;;;;1.63;1.00;;;;;;;32.38;39.33;95662.13;6127571;23;20097;-85
2022/09/14 11:32:05;;;;;;;14.00;4.50;;;;;;;32.04;40.79;95652.72;6127987;23;20025;-85
2022/09/14 11:34:57;;;;;;;10.75;5.10;;;;;;;31.50;40.81;95650.34;6129907;23;20017;-84
2022/09/14 11:37:33;;;;;;;4.25;2.30;;;;;;;31.03;41.73;95643.53;6129271;23;20539;-86
2022/09/14 11:40:13;;;;;;;6.13;3.63;;;;;;;30.68;44.10;95640.44;6127450;23;20363;-86
2022/09/14 11:42:58;;;;;;;7.57;3.30;;;;;;;30.54;44.58;95638.06;6129653;23;20358;-84
2022/09/14 11:45:32;;;;;;;5.45;2.50;;;;;;;30.52;44.41;95634.91;6130699;23;20390;-84
2022/09/14 11:48:20;;;;;;;7.90;2.42;;;;;;;30.41;44.71;95628.41;6130371;23;20026;-85
2022/09/14 11:51:14;;;;;;;2.60;1.25;;;;;;;30.26;45.10;95625.19;6128269;23;20071;-83
2022/09/14 11:53:43;;;;;;;1.88;1.40;;;;;;;30.10;44.34;95622.34;6130382;23;20076;-86
2022/09/14 11:56:25;;;;;;;6.03;1.50;;;;;;;29.99;44.51;95618.50;6129152;23;20018;-85
2022/09/14 11:58:55;;;;;;;2.05;1.20;;;;;;;29.88;45.63;95628.88;6130391;23;20455;-86
2022/09/14 12:01:35;;;;;;;4.05;1.33;;;;;;;29.87;46.24;95623.81;6128627;23;20100;-88
2022/09/14 12:04:16;;;;;;;3.03;1.52;;;;;;;29.80;46.16;95620.88;6129533;23;20014;-87
2022/09/14 12:06:52;;;;;;;2.97;1.55;;;;;;;29.70;45.71;95622.06;6127812;23;20340;-86
2022/09/14 12:09:53;;;;;;;1.40;1.30;;;;;;;29.69;45.80;95628.53;6128053;23;20077;-86
2022/09/14 12:12:33;;;;;;;2.67;1.20;;;;;;;29.70;45.49;95622.84;6128647;23;20022;-85
2022/09/14 12:15:03;;;;;;;2.58;1.20;;;;;;;29.67;45.56;95633.44;6129039;23;20029;-85
2022/09/14 12:17:34;;;;;;;2.45;1.55;;;;;;;29.65;44.66;95649.09;6132569;23;20044;-86
2022/09/14 12:20:28;;;;;;;2.70;1.55;;;;;;;29.60;46.01;95649.31;6131249;23;20026;-85
2022/09/14 12:23:13;;;;;;;5.05;1.75;;;;;;;29.55;45.29;95648.38;6129433;23;20057;-85
2022/09/14 12:25:56;;;;;;;6.18;1.38;;;;;;;29.54;45.99;95648.69;6130703;23;20022;-85
2022/09/14 12:28:47;;;;;;;1.55;1.40;;;;;;;29.56;45.75;95644.59;6132108;23;20024;-86
2022/09/14 12:31:35;;;;;;;3.42;1.77;;;;;;;29.60;46.12;95638.56;6123945;23;20028;-83
2022/09/14 12:34:18;;;;;;;2.80;1.27;;;;;;;29.60;45.53;95652.00;6128444;23;20462;-86
2022/09/14 12:37:17;;;;;;;2.92;1.52;;;;;;;29.56;45.87;95643.78;6129125;23;20049;-86
2022/09/14 12:40:26;;;;;;;3.35;1.35;;;;;;;29.46;45.00;95642.28;6122936;23;20055;-87
2022/09/14 12:42:54;;;;;;;4.90;1.33;;;;;;;29.42;44.89;95644.03;6095466;23;20466;-85
2022/09/14 12:45:48;;;;;;;3.22;1.10;;;;;;;29.31;45.77;95629.44;6130658;23;20102;-86
2022/09/14 12:48:57;;;;;;;3.63;1.20;;;;;;;29.16;45.97;95628.88;6132286;23;20061;-86
2022/09/14 12:51:39;;;;;;;2.88;1.63;;;;;;;29.03;45.59;95631.78;6140207;23;20025;-86
2022/09/14 12:54:19;;;;;;;2.40;1.00;;;;;;;28.90;46.35;95622.81;6140633;23;20024;-86
2022/09/14 12:56:57;;;;;;;1.88;1.17;;;;;;;28.78;47.34;95620.06;6139730;23;20037;-86
2022/09/14 12:59:33;;;;;;;4.65;1.35;;;;;;;28.66;47.11;95621.50;6140397;23;20097;-88
2022/09/14 13:02:15;;;;;;;3.30;1.42;;;;;;;28.55;46.66;95607.66;6138299;23;20424;-87
2022/09/14 13:04:46;;;;;;;2.90;1.50;;;;;;;28.43;47.13;95604.06;6139327;23;20056;-85
2022/09/14 13:07:18;;;;;;;3.08;1.80;;;;;;;28.28;47.17;95595.41;6136390;23;20018;-86
2022/09/14 13:09:47;;;;;;;13.75;8.45;;;;;;;28.15;48.67;95591.81;6132043;23;20366;-87
2022/09/14 13:12:23;;;;;;;17.02;12.38;;;;;;;28.07;48.71;95589.16;6130369;23;20045;-85
2022/09/14 13:14:54;;;;;;;3.45;2.25;;;;;;;27.94;49.05;95591.72;6129992;23;20018;-85
2022/09/14 13:17:23;;;;;;;2.72;1.60;;;;;;;27.84;48.92;95589.31;6129639;23;20060;-85
2022/09/14 13:19:54;;;;;;;5.45;1.80;;;;;;;27.73;49.57;95588.06;6135477;23;20364;-85
2022/09/14 13:22:25;;;;;;;;;;;;;;;27.67;49.59;95589.34;6132878;23;20025;-84
2022/09/14 13:24:55;;;;;;;2.10;1.55;;;;;;;27.54;50.33;95581.13;6130507;23;19924;-85
2022/09/14 13:27:25;;;;;;;4.22;1.73;;;;;;;27.46;50.28;95579.25;6139197;23;20077;-87
2022/09/14 13:30:01;;;;;;;3.13;1.42;;;;;;;27.39;51.22;95586.94;6147310;23;20077;-90
2022/09/14 13:32:30;;;;;;;2.95;1.40;;;;;;;27.33;50.92;95585.53;6151597;23;20069;-87
2022/09/14 13:34:58;;;;;;;3.20;1.45;;;;;;;27.28;49.90;95585.69;6150515;23;20026;-86
2022/09/14 13:37:27;;;;;;;3.28;1.50;;;;;;;27.20;50.71;95597.94;6151317;23;20129;-86
2022/09/14 13:39:57;;;;;;;7.38;3.08;;;;;;;27.09;50.51;95615.38;6150044;23;20006;-86
2022/09/14 13:42:26;;;;;;;11.90;8.77;;;;;;;26.94;51.30;95632.69;6152998;23;20057;-86
2022/09/14 13:44:54;;;;;;;3.47;2.17;;;;;;;26.78;52.25;95628.81;6152819;23;20014;-86
2022/09/14 13:47:23;;;;;;;3.15;1.30;;;;;;;26.62;53.60;95613.19;6153096;23;20017;-85
2022/09/14 13:49:53;;;;;;;5.50;1.77;;;;;;;26.49;53.67;95622.06;6153077;23;20017;-84
2022/09/14 14:04:23;;;;;;;2.42;1.63;;;;;;;26.07;56.47;95637.56;6154849;23;20033;-85
